Time,TemperatureF,DewpointF,PressureIn,WindDirection,WindDirectionDegrees,WindSpeedMPH,WindSpeedGustMPH,Humidity,HourlyPrecipIn,Conditions,Clouds,dailyrainin,SoftwareType,DateUTC
2013-03-03 00:01:00,58.0,47.0,30.09,West,265,0.0,1.0,68,0.00,,,0.00,,2013-03-03 08:01:00,
2013-03-03 00:21:00,57.0,47.0,30.09,West,265,0.0,0.0,69,0.00,,,0.00,,2013-03-03 08:21:00,
2013-03-03 00:31:00,56.0,46.0,30.09,West,265,0.0,0.0,70,0.00,,,0.00,,2013-03-03 08:31:00,
2013-03-03 00:53:00,55.0,46.0,30.09,West,265,0.0,0.0,71,0.00,,,0.00,,2013-03-03 08:53:00,
2013-03-03 01:01:00,55.0,46.0,30.09,West,265,1.0,2.0,71,0.00,,,0.00,,2013-03-03 09:01:00,
2013-03-03 01:11:00,55.0,46.0,30.09,West,265,1.0,2.0,71,0.00,,,0.00,,2013-03-03 09:11:00,
2013-03-03 01:21:00,55.0,44.0,30.09,West,265,0.0,1.0,67,0.00,,,0.00,,2013-03-03 09:21:00,
2013-03-03 01:31:00,55.0,43.0,30.09,West,265,0.0,1.0,64,0.00,,,0.00,,2013-03-03 09:31:00,
2013-03-03 01:41:00,55.0,43.0,30.09,West,265,0.0,1.0,64,0.00,,,0.00,,2013-03-03 09:41:00,
2013-03-03 01:52:00,54.0,42.0,30.09,West,265,0.0,0.0,63,0.00,,,0.00,,2013-03-03 09:52:00,
2013-03-03 02:01:00,54.0,43.0,30.09,West,265,0.0,1.0,65,0.00,,,0.00,,2013-03-03 10:01:00,
2013-03-03 02:11:00,54.0,43.0,30.09,West,265,0.0,1.0,65,0.00,,,0.00,,2013-03-03 10:11:00,
2013-03-03 02:21:00,54.0,41.0,30.07,SE,125,1.0,3.0,62,0.00,,,0.00,,2013-03-03 10:21:00,
2013-03-03 02:31:00,55.0,41.0,30.06,ESE,113,2.0,3.0,60,0.00,,,0.00,,2013-03-03 10:31:00,
2013-03-03 02:41:00,55.0,41.0,30.06,ESE,113,2.0,3.0,60,0.00,,,0.00,,2013-03-03 10:41:00,
2013-03-03 02:52:00,57.0,44.0,30.09,West,271,2.0,6.0,61,0.00,,,0.00,,2013-03-03 10:52:00,
2013-03-03 03:01:00,57.0,46.0,30.09,NE,55,2.0,8.0,66,0.00,,,0.00,,2013-03-03 11:01:00,
2013-03-03 03:11:00,57.0,46.0,30.09,NE,55,2.0,8.0,66,0.00,,,0.00,,2013-03-03 11:11:00,
2013-03-03 03:21:00,57.0,47.0,30.09,NNE,12,3.0,6.0,70,0.00,,,0.00,,2013-03-03 11:21:00,
2013-03-03 03:31:00,56.0,46.0,30.02,East,86,6.0,9.0,68,0.00,,,0.00,,2013-03-03 11:31:00,
2013-03-03 03:41:00,56.0,46.0,30.02,East,86,6.0,9.0,68,0.00,,,0.00,,2013-03-03 11:41:00,
2013-03-03 03:52:00,57.0,44.0,30.02,ENE,71,1.0,10.0,62,0.00,,,0.00,,2013-03-03 11:52:00,
2013-03-03 04:01:00,57.0,44.0,30.03,WNW,288,1.0,3.0,61,0.00,,,0.00,,2013-03-03 12:01:00,
2013-03-03 04:11:00,57.0,44.0,30.03,WNW,288,1.0,3.0,61,0.00,,,0.00,,2013-03-03 12:11:00,
2013-03-03 04:21:00,56.0,43.0,30.01,WNW,290,0.0,2.0,62,0.00,,,0.00,,2013-03-03 12:21:00,
2013-03-03 04:31:00,56.0,42.0,30.01,North,5,0.0,3.0,60,0.00,,,0.00,,2013-03-03 12:31:00,
2013-03-03 04:42:00,56.0,42.0,30.01,North,5,0.0,3.0,60,0.00,,,0.00,,2013-03-03 12:42:00,
2013-03-03 04:52:00,57.0,42.0,30.02,SW,219,1.0,3.0,58,0.00,,,0.00,,2013-03-03 12:52:00,
2013-03-03 05:01:00,57.0,44.0,30.03,SSW,207,4.0,8.0,61,0.00,,,0.00,,2013-03-03 13:01:00,
2013-03-03 05:11:00,57.0,44.0,30.03,SSW,207,4.0,8.0,61,0.00,,,0.00,,2013-03-03 13:11:00,
2013-03-03 05:21:00,56.0,46.0,30.04,SSW,201,1.0,6.0,68,0.00,,,0.00,,2013-03-03 13:21:00,
2013-03-03 05:31:00,56.0,47.0,30.04,SSW,196,2.0,5.0,72,0.00,,,0.00,,2013-03-03 13:31:00,
2013-03-03 05:41:00,56.0,47.0,30.04,SSW,196,2.0,5.0,72,0.00,,,0.00,,2013-03-03 13:41:00,
2013-03-03 05:52:00,55.0,48.0,30.06,SSW,204,0.0,3.0,77,0.00,,,0.00,,2013-03-03 13:52:00,
2013-03-03 06:01:00,55.0,48.0,30.06,WSW,246,0.0,3.0,77,0.00,,,0.00,,2013-03-03 14:01:00,
2013-03-03 06:11:00,55.0,48.0,30.06,WSW,246,0.0,3.0,77,0.00,,,0.00,,2013-03-03 14:11:00,
2013-03-03 06:21:00,55.0,49.0,30.07,WSW,252,1.0,3.0,79,0.00,,,0.00,,2013-03-03 14:21:00,
2013-03-03 06:31:00,55.0,48.0,30.07,NNW,348,2.0,3.0,78,0.00,,,0.00,,2013-03-03 14:31:00,
2013-03-03 06:42:00,55.0,48.0,30.07,NNW,348,2.0,3.0,78,0.00,,,0.00,,2013-03-03 14:42:00,
2013-03-03 06:52:00,55.0,48.0,30.07,NNW,348,2.0,3.0,78,0.00,,,0.00,,2013-03-03 14:52:00,
2013-03-03 07:01:00,55.0,47.0,30.06,ENE,62,1.0,3.0,73,0.00,,,0.00,,2013-03-03 15:01:00,
2013-03-03 07:11:00,55.0,47.0,30.06,ENE,62,1.0,3.0,73,0.00,,,0.00,,2013-03-03 15:11:00,
2013-03-03 07:22:00,55.0,46.0,30.06,East,92,2.0,5.0,72,0.00,,,0.00,,2013-03-03 15:22:00,
2013-03-03 07:31:00,56.0,47.0,30.06,East,95,1.0,3.0,72,0.00,,,0.00,,2013-03-03 15:31:00,
2013-03-03 07:41:00,56.0,47.0,30.06,East,95,1.0,3.0,72,0.00,,,0.00,,2013-03-03 15:41:00,
2013-03-03 07:52:00,57.0,48.0,30.06,ESE,106,1.0,5.0,71,0.00,,,0.00,,2013-03-03 15:52:00,
2013-03-03 08:01:00,57.0,48.0,30.06,ESE,106,1.0,5.0,71,0.00,,,0.00,,2013-03-03 16:01:00,
2013-03-03 08:11:00,57.0,48.0,30.06,ESE,106,1.0,5.0,71,0.00,,,0.00,,2013-03-03 16:11:00,
2013-03-03 08:21:00,58.0,48.0,30.08,SSE,164,1.0,5.0,69,0.00,,,0.00,,2013-03-03 16:21:00,
2013-03-03 08:31:00,59.0,49.0,30.08,South,171,3.0,6.0,69,0.00,,,0.00,,2013-03-03 16:31:00,
2013-03-03 08:42:00,59.0,49.0,30.08,South,171,3.0,6.0,69,0.00,,,0.00,,2013-03-03 16:42:00,
2013-03-03 08:52:00,60.0,49.0,30.06,SE,139,4.0,6.0,68,0.00,,,0.00,,2013-03-03 16:52:00,
2013-03-03 09:01:00,60.0,50.0,30.07,SE,138,2.0,6.0,69,0.00,,,0.00,,2013-03-03 17:01:00,
2013-03-03 09:11:00,60.0,51.0,30.09,SSW,194,3.0,6.0,72,0.00,,,0.00,,2013-03-03 17:11:00,
2013-03-03 09:21:00,60.0,51.0,30.09,SSW,194,3.0,6.0,72,0.00,,,0.00,,2013-03-03 17:21:00,
2013-03-03 09:32:00,60.0,52.0,30.08,SSW,204,3.0,5.0,74,0.00,,,0.00,,2013-03-03 17:32:00,
2013-03-03 09:41:00,60.0,52.0,30.08,SSW,204,3.0,5.0,74,0.00,,,0.00,,2013-03-03 17:41:00,
2013-03-03 09:52:00,60.0,52.0,30.08,SSW,210,2.0,5.0,74,0.00,,,0.00,,2013-03-03 17:52:00,
2013-03-03 10:01:00,60.0,51.0,30.09,SSW,211,1.0,3.0,73,0.00,,,0.00,,2013-03-03 18:01:00,
2013-03-03 10:11:00,60.0,51.0,30.09,SSW,211,1.0,3.0,73,0.00,,,0.00,,2013-03-03 18:11:00,
2013-03-03 10:21:00,61.0,50.0,30.07,SW,224,1.0,3.0,68,0.00,,,0.00,,2013-03-03 18:21:00,
2013-03-03 10:31:00,61.0,50.0,30.07,SW,224,1.0,3.0,68,0.00,,,0.00,,2013-03-03 18:31:00,
2013-03-03 10:41:00,61.0,50.0,30.07,SW,224,1.0,3.0,68,0.00,,,0.00,,2013-03-03 18:41:00,
2013-03-03 10:52:00,62.0,50.0,30.07,SE,144,3.0,5.0,65,0.00,,,0.00,,2013-03-03 18:52:00,
2013-03-03 11:01:00,62.0,51.0,30.07,SE,137,2.0,7.0,66,0.00,,,0.00,,2013-03-03 19:01:00,
2013-03-03 11:11:00,63.0,51.0,30.07,SSE,152,2.0,7.0,64,0.00,,,0.00,,2013-03-03 19:11:00,
2013-03-03 11:21:00,63.0,51.0,30.07,SSE,152,2.0,7.0,64,0.00,,,0.00,,2013-03-03 19:21:00,
2013-03-03 11:31:00,63.0,51.0,30.06,SSE,149,1.0,5.0,64,0.00,,,0.00,,2013-03-03 19:31:00,
2013-03-03 11:42:00,63.0,51.0,30.06,SSE,149,1.0,5.0,64,0.00,,,0.00,,2013-03-03 19:42:00,
2013-03-03 11:51:00,64.0,52.0,30.05,SSE,167,2.0,5.0,65,0.00,,,0.00,,2013-03-03 19:51:00,
2013-03-03 12:01:00,64.0,52.0,30.05,SE,142,3.0,6.0,66,0.00,,,0.00,,2013-03-03 20:01:00,
2013-03-03 12:11:00,64.0,52.0,30.05,SE,142,3.0,6.0,66,0.00,,,0.00,,2013-03-03 20:11:00,
2013-03-03 12:21:00,64.0,49.0,30.04,SSE,168,4.0,7.0,59,0.00,,,0.00,,2013-03-03 20:21:00,
2013-03-03 12:32:00,65.0,48.0,30.03,SSE,151,4.0,9.0,55,0.00,,,0.00,,2013-03-03 20:32:00,
2013-03-03 12:42:00,65.0,48.0,30.03,SSE,151,4.0,9.0,55,0.00,,,0.00,,2013-03-03 20:42:00,
2013-03-03 12:52:00,67.0,43.0,30.03,SSW,206,5.0,12.0,41,0.00,,,0.00,,2013-03-03 20:52:00,
2013-03-03 13:01:00,67.0,44.0,30.02,South,177,3.0,9.0,43,0.00,,,0.00,,2013-03-03 21:01:00,
2013-03-03 13:11:00,67.0,44.0,30.02,South,177,3.0,9.0,43,0.00,,,0.00,,2013-03-03 21:11:00,
2013-03-03 13:21:00,67.0,47.0,30.02,South,180,3.0,7.0,48,0.00,,,0.00,,2013-03-03 21:21:00,
2013-03-03 13:31:00,67.0,46.0,30.01,South,172,4.0,7.0,47,0.00,,,0.00,,2013-03-03 21:31:00,
2013-03-03 13:41:00,67.0,46.0,30.01,South,172,4.0,7.0,47,0.00,,,0.00,,2013-03-03 21:41:00,
2013-03-03 13:52:00,67.0,48.0,30.01,SSW,204,5.0,9.0,50,0.00,,,0.00,,2013-03-03 21:52:00,
2013-03-03 14:01:00,68.0,47.0,30.00,SW,217,3.0,7.0,47,0.00,,,0.00,,2013-03-03 22:01:00,
2013-03-03 14:11:00,68.0,47.0,30.00,SW,217,3.0,7.0,47,0.00,,,0.00,,2013-03-03 22:11:00,
2013-03-03 14:21:00,68.0,43.0,29.99,SW,219,3.0,10.0,41,0.00,,,0.00,,2013-03-03 22:21:00,
2013-03-03 14:31:00,70.0,45.0,29.99,SSW,196,4.0,9.0,41,0.00,,,0.00,,2013-03-03 22:31:00,
2013-03-03 14:41:00,70.0,45.0,29.99,SSW,196,4.0,9.0,41,0.00,,,0.00,,2013-03-03 22:41:00,
2013-03-03 14:52:00,69.0,39.0,29.98,SSW,195,4.0,9.0,34,0.00,,,0.00,,2013-03-03 22:52:00,
2013-03-03 15:01:00,69.0,40.0,29.98,SW,216,6.0,10.0,35,0.00,,,0.00,,2013-03-03 23:01:00,
2013-03-03 15:11:00,69.0,40.0,29.98,SW,216,6.0,10.0,35,0.00,,,0.00,,2013-03-03 23:11:00,
2013-03-03 15:21:00,70.0,40.0,29.98,South,169,5.0,10.0,33,0.00,,,0.00,,2013-03-03 23:21:00,
2013-03-03 15:31:00,69.0,41.0,29.98,South,189,7.0,12.0,36,0.00,,,0.00,,2013-03-03 23:31:00,
2013-03-03 15:41:00,69.0,41.0,29.98,South,189,7.0,12.0,36,0.00,,,0.00,,2013-03-03 23:41:00,
2013-03-03 15:52:00,68.0,41.0,29.97,SSW,207,5.0,10.0,37,0.00,,,0.00,,2013-03-03 23:52:00,
2013-03-03 16:01:00,67.0,41.0,29.97,South,179,5.0,9.0,38,0.00,,,0.00,,2013-03-04 00:01:00,
2013-03-03 16:11:00,67.0,41.0,29.97,South,179,5.0,9.0,38,0.00,,,0.00,,2013-03-04 00:11:00,
2013-03-03 16:21:00,68.0,43.0,29.97,SSE,163,6.0,8.0,41,0.00,,,0.00,,2013-03-04 00:21:00,
2013-03-03 16:31:00,66.0,45.0,29.97,South,175,5.0,9.0,47,0.00,,,0.00,,2013-03-04 00:31:00,
2013-03-03 16:41:00,66.0,45.0,29.97,South,175,5.0,9.0,47,0.00,,,0.00,,2013-03-04 00:41:00,
2013-03-03 16:51:00,65.0,45.0,29.97,South,190,6.0,8.0,49,0.00,,,0.00,,2013-03-04 00:51:00,
2013-03-03 17:01:00,65.0,49.0,29.97,South,191,5.0,7.0,56,0.00,,,0.00,,2013-03-04 01:01:00,
2013-03-03 17:11:00,65.0,49.0,29.97,South,191,5.0,7.0,56,0.00,,,0.00,,2013-03-04 01:11:00,
2013-03-03 17:21:00,63.0,50.0,29.97,South,176,5.0,9.0,62,0.00,,,0.00,,2013-03-04 01:21:00,
2013-03-03 17:31:00,62.0,50.0,29.97,SSE,160,4.0,8.0,64,0.00,,,0.00,,2013-03-04 01:31:00,
2013-03-03 17:41:00,62.0,50.0,29.97,SSE,160,4.0,8.0,64,0.00,,,0.00,,2013-03-04 01:41:00,
2013-03-03 17:52:00,61.0,50.0,29.98,SSE,161,5.0,8.0,66,0.00,,,0.00,,2013-03-04 01:52:00,
2013-03-03 18:01:00,61.0,52.0,29.98,SE,133,4.0,7.0,71,0.00,,,0.00,,2013-03-04 02:01:00,
2013-03-03 18:11:00,61.0,52.0,29.98,SE,133,4.0,7.0,71,0.00,,,0.00,,2013-03-04 02:11:00,
2013-03-03 18:22:00,60.0,53.0,29.98,SE,139,3.0,6.0,77,0.00,,,0.00,,2013-03-04 02:22:00,
2013-03-03 18:31:00,59.0,52.0,29.98,SE,134,5.0,6.0,78,0.00,,,0.00,,2013-03-04 02:31:00,
2013-03-03 18:41:00,59.0,52.0,29.98,SE,134,5.0,6.0,78,0.00,,,0.00,,2013-03-04 02:41:00,
2013-03-03 18:52:00,59.0,53.0,29.99,SE,133,2.0,3.0,80,0.00,,,0.00,,2013-03-04 02:52:00,
2013-03-03 19:01:00,58.0,52.0,29.99,SE,132,1.0,3.0,80,0.00,,,0.00,,2013-03-04 03:01:00,
2013-03-03 19:11:00,58.0,52.0,29.99,SE,132,1.0,3.0,80,0.00,,,0.00,,2013-03-04 03:11:00,
2013-03-03 19:21:00,58.0,52.0,29.99,East,99,2.0,3.0,81,0.00,,,0.00,,2013-03-04 03:21:00,
2013-03-03 19:31:00,58.0,53.0,29.99,SE,146,3.0,6.0,82,0.00,,,0.00,,2013-03-04 03:31:00,
2013-03-03 19:41:00,58.0,53.0,30.00,ESE,113,1.0,6.0,83,0.00,,,0.00,,2013-03-04 03:41:00,
2013-03-03 19:52:00,58.0,53.0,30.00,ESE,113,1.0,6.0,83,0.00,,,0.00,,2013-03-04 03:52:00,
2013-03-03 20:01:00,58.0,53.0,30.00,ESE,108,1.0,5.0,83,0.00,,,0.00,,2013-03-04 04:01:00,
2013-03-03 20:11:00,58.0,53.0,30.00,ESE,108,1.0,5.0,83,0.00,,,0.00,,2013-03-04 04:11:00,
2013-03-03 20:21:00,58.0,53.0,30.00,ESE,105,1.0,3.0,83,0.00,,,0.00,,2013-03-04 04:21:00,
2013-03-03 20:31:00,57.0,52.0,30.01,SE,141,3.0,5.0,84,0.00,,,0.00,,2013-03-04 04:31:00,
2013-03-03 20:41:00,57.0,52.0,30.01,SE,141,3.0,5.0,84,0.00,,,0.00,,2013-03-04 04:41:00,
2013-03-03 20:51:00,57.0,53.0,30.01,SE,130,2.0,6.0,85,0.00,,,0.00,,2013-03-04 04:51:00,
2013-03-03 21:01:00,57.0,53.0,30.01,SE,130,2.0,6.0,85,0.00,,,0.00,,2013-03-04 05:01:00,
2013-03-03 21:11:00,57.0,53.0,30.01,SE,130,2.0,6.0,85,0.00,,,0.00,,2013-03-04 05:11:00,
2013-03-03 21:22:00,57.0,53.0,30.01,SE,134,3.0,6.0,85,0.00,,,0.00,,2013-03-04 05:22:00,
2013-03-03 21:31:00,57.0,53.0,30.01,ESE,123,1.0,5.0,86,0.00,,,0.00,,2013-03-04 05:31:00,
2013-03-03 21:42:00,56.0,52.0,30.01,SSE,151,4.0,7.0,88,0.00,,,0.00,,2013-03-04 05:42:00,
2013-03-03 21:52:00,56.0,52.0,30.01,SSE,151,4.0,7.0,88,0.00,,,0.00,,2013-03-04 05:52:00,
2013-03-03 22:01:00,56.0,52.0,30.01,SE,130,4.0,9.0,88,0.00,,,0.00,,2013-03-04 06:01:00,
2013-03-03 22:11:00,56.0,52.0,30.01,SE,130,4.0,9.0,88,0.00,,,0.00,,2013-03-04 06:11:00,
2013-03-03 22:21:00,56.0,53.0,30.01,ESE,118,4.0,8.0,89,0.00,,,0.00,,2013-03-04 06:21:00,
2013-03-03 22:31:00,56.0,53.0,30.01,SSE,161,4.0,8.0,89,0.00,,,0.00,,2013-03-04 06:31:00,
2013-03-03 22:42:00,56.0,53.0,30.01,SSE,161,4.0,8.0,89,0.00,,,0.00,,2013-03-04 06:42:00,
2013-03-03 22:51:00,56.0,52.0,30.01,SSE,162,5.0,6.0,88,0.00,,,0.00,,2013-03-04 06:51:00,
2013-03-03 23:01:00,56.0,52.0,30.01,ESE,118,3.0,7.0,88,0.00,,,0.00,,2013-03-04 07:01:00,
2013-03-03 23:11:00,56.0,52.0,30.01,ESE,118,3.0,7.0,88,0.00,,,0.00,,2013-03-04 07:11:00,
2013-03-03 23:21:00,56.0,52.0,30.01,ESE,118,3.0,7.0,88,0.00,,,0.00,,2013-03-04 07:21:00,
2013-03-03 23:31:00,56.0,52.0,30.01,ESE,118,3.0,7.0,88,0.00,,,0.00,,2013-03-04 07:31:00,
2013-03-03 23:41:00,56.0,52.0,30.01,ESE,118,3.0,7.0,88,0.00,,,0.00,,2013-03-04 07:41:00,
2013-03-03 23:52:00,55.0,52.0,30.01,SSE,155,5.0,6.0,89,0.00,,,0.00,,2013-03-04 07:52:00,